Time;durP1;ratioP1;P1;durP2;ratioP2;P2;SDS_P1;SDS_P2;PMS_P1;PMS_P2;Temp;Humidity;BMP_temperature;BMP_pressure;BME280_temperature;BME280_humidity;BME280_pressure;Samples;Min_cycle;Max_cycle;Signal;HPM_P1;HPM_P2
2023/06/05 00:02:15;;;;;;;6.25;3.03;;;;;;;11.57;46.26;100174.28;5034281;28;20033;-65
2023/06/05 00:04:43;;;;;;;5.65;2.95;;;;;;;11.59;46.73;100166.13;5052148;28;20033;-65
2023/06/05 00:07:09;;;;;;;7.25;2.90;;;;;;;11.62;46.26;100172.09;5052575;28;20029;-65
2023/06/05 00:09:34;;;;;;;7.05;2.97;;;;;;;11.66;46.29;100166.50;5052190;28;20175;-63
2023/06/05 00:12:00;;;;;;;4.47;2.63;;;;;;;11.68;46.03;100165.38;5052244;28;20029;-64
2023/06/05 00:14:26;;;;;;;6.65;3.00;;;;;;;11.72;46.08;100160.63;5052760;28;20040;-63
2023/06/05 00:16:51;;;;;;;7.32;3.08;;;;;;;11.74;46.25;100161.34;5049682;28;20369;-66
2023/06/05 00:19:17;;;;;;;10.70;3.10;;;;;;;11.80;45.90;100166.22;5051948;28;20384;-64
2023/06/05 00:21:43;;;;;;;7.15;3.22;;;;;;;11.78;46.16;100165.50;5034637;28;20120;-64
2023/06/05 00:24:08;;;;;;;5.85;2.92;;;;;;;11.81;46.03;100164.41;5051679;28;20037;-64
2023/06/05 00:26:34;;;;;;;4.70;3.20;;;;;;;11.82;45.91;100164.31;5052663;28;20029;-65
2023/06/05 00:28:59;;;;;;;6.65;3.08;;;;;;;11.84;46.30;100162.34;5054221;28;20091;-70
2023/06/05 00:31:25;;;;;;;5.78;2.97;;;;;;;11.87;45.76;100170.13;5058602;28;20029;-65
2023/06/05 00:33:51;;;;;;;5.32;3.30;;;;;;;11.91;45.82;100176.97;5058883;28;20029;-64
2023/06/05 00:36:18;;;;;;;6.82;2.92;;;;;;;11.90;45.67;100171.69;5041790;28;20115;-65
2023/06/05 00:38:45;;;;;;;10.73;3.03;;;;;;;11.90;45.61;100169.88;5058776;28;20497;-64
2023/06/05 00:41:11;;;;;;;7.38;2.80;;;;;;;11.88;45.83;100155.75;5041178;28;20033;-64
2023/06/05 00:43:37;;;;;;;4.60;3.00;;;;;;;11.98;45.48;100171.09;5058267;28;20433;-64
2023/06/05 00:46:04;;;;;;;8.18;3.10;;;;;;;11.97;45.48;100172.06;5058950;28;20020;-65
2023/06/05 00:48:32;;;;;;;7.10;2.70;;;;;;;12.01;45.44;100170.88;5059072;28;20541;-64
2023/06/05 00:50:58;;;;;;;5.60;2.90;;;;;;;12.01;45.81;100171.72;5058668;28;20035;-65
2023/06/05 00:53:25;;;;;;;3.30;2.67;;;;;;;12.01;45.68;100177.09;5058713;28;20028;-63
2023/06/05 00:55:51;;;;;;;5.43;2.85;;;;;;;12.01;45.83;100171.72;5058553;28;20099;-64
2023/06/05 00:58:17;;;;;;;7.53;2.80;;;;;;;12.03;46.17;100161.72;5058747;28;20114;-65
2023/06/05 01:00:43;;;;;;;4.38;2.58;;;;;;;11.86;45.80;100136.25;5058142;28;20415;-64
2023/06/05 01:03:09;;;;;;;5.53;2.67;;;;;;;12.03;45.76;100163.53;5058892;28;20032;-65
2023/06/05 01:05:36;;;;;;;5.93;2.60;;;;;;;12.08;46.11;100169.41;5058504;28;20449;-65
2023/06/05 01:08:03;;;;;;;3.63;2.78;;;;;;;12.08;45.79;100165.84;5058272;28;20033;-69
2023/06/05 01:10:29;;;;;;;5.28;2.92;;;;;;;12.08;45.71;100172.09;5058600;28;20032;-65
2023/06/05 01:13:06;;;;;;;7.47;2.55;;;;;;;12.18;45.50;100178.41;5058255;28;20029;-64
2023/06/05 01:15:33;;;;;;;7.35;2.83;;;;;;;12.11;45.55;100165.59;5058458;28;20445;-69
2023/06/05 01:18:00;;;;;;;5.10;2.85;;;;;;;11.87;46.14;100132.59;5058182;28;20421;-64
2023/06/05 01:20:33;;;;;;;6.80;2.50;;;;;;;11.87;46.01;100127.22;5057626;28;20040;-63
2023/06/05 01:22:58;;;;;;;6.25;2.85;;;;;;;12.05;46.36;100166.94;5058610;28;20041;-65
2023/06/05 01:25:25;;;;;;;8.00;2.88;;;;;;;12.06;46.19;100174.06;5058030;28;20044;-64
2023/06/05 01:28:00;;;;;;;6.35;2.75;;;;;;;12.13;46.21;100174.38;5057934;28;20041;-64
2023/06/05 01:30:44;;;;;;;8.73;2.90;;;;;;;12.11;46.26;100161.09;5058456;28;20047;-65
2023/06/05 01:33:17;;;;;;;8.95;2.92;;;;;;;12.15;46.33;100173.28;5057949;28;20578;-65
2023/06/05 01:35:45;;;;;;;4.05;2.72;;;;;;;12.12;46.34;100162.81;5058031;28;20420;-65
2023/06/05 01:38:11;;;;;;;4.70;2.45;;;;;;;12.09;46.23;100160.38;5058400;28;20033;-65
2023/06/05 01:40:39;;;;;;;6.13;2.53;;;;;;;12.11;45.70;100166.47;5037288;28;20044;-65
2023/06/05 01:43:07;;;;;;;4.82;2.28;;;;;;;12.06;45.74;100161.47;5037107;28;20357;-65
2023/06/05 01:45:37;;;;;;;5.63;2.40;;;;;;;12.13;45.69;100172.56;5055060;28;20040;-63
2023/06/05 01:48:03;;;;;;;3.75;2.45;;;;;;;12.15;45.53;100165.25;5055103;28;20108;-58
2023/06/05 01:50:33;;;;;;;4.93;2.17;;;;;;;12.23;45.49;100169.97;5054863;28;20052;-58
2023/06/05 01:53:00;;;;;;;4.63;2.35;;;;;;;12.15;45.30;100159.00;5037524;28;20036;-62
2023/06/05 01:55:26;;;;;;;3.47;2.20;;;;;;;12.28;45.26;100180.31;5054392;28;20032;-55
2023/06/05 01:57:52;;;;;;;4.00;2.25;;;;;;;12.32;45.18;100174.59;5054487;28;20037;-60
2023/06/05 02:00:18;;;;;;;7.15;2.60;;;;;;;12.35;45.27;100177.00;5053801;28;20119;-58
2023/06/05 02:02:47;;;;;;;6.10;2.28;;;;;;;12.43;45.07;100178.22;5054327;28;20033;-59
2023/06/05 02:05:15;;;;;;;4.15;2.30;;;;;;;12.51;45.00;100186.50;5054172;28;20049;-57
2023/06/05 02:07:55;;;;;;;4.57;2.40;;;;;;;12.58;45.01;100186.84;5054478;28;20116;-59
2023/06/05 02:10:20;;;;;;;6.55;2.30;;;;;;;12.55;45.02;100169.13;5054715;28;20083;-55
2023/06/05 02:12:51;;;;;;;3.88;2.05;;;;;;;12.64;45.29;100178.25;5054219;28;20025;-54
2023/06/05 02:15:17;;;;;;;5.07;2.05;;;;;;;12.71;45.52;100192.88;5054191;28;20040;-54
2023/06/05 02:17:49;;;;;;;3.42;2.33;;;;;;;12.77;45.35;100188.81;5053778;28;20029;-58
2023/06/05 02:20:17;;;;;;;3.15;2.03;;;;;;;12.76;45.12;100174.53;5054642;28;20372;-60
2023/06/05 02:22:44;;;;;;;4.85;2.13;;;;;;;12.87;45.42;100186.22;5054655;28;20510;-59
2023/06/05 02:25:10;;;;;;;4.88;2.22;;;;;;;12.87;45.05;100175.47;5053944;28;20459;-58
2023/06/05 02:27:36;;;;;;;5.22;1.90;;;;;;;12.95;44.79;100189.09;5054600;28;20326;-65
2023/06/05 02:30:03;;;;;;;5.97;2.10;;;;;;;12.99;44.99;100190.53;5054646;28;20411;-61
2023/06/05 02:32:32;;;;;;;6.22;2.22;;;;;;;13.01;44.76;100185.03;5054243;28;20471;-60
2023/06/05 02:34:58;;;;;;;8.02;2.25;;;;;;;13.04;44.96;100190.16;5053940;28;20056;-59
2023/06/05 02:37:28;;;;;;;5.32;2.13;;;;;;;13.10;44.95;100200.38;5053917;28;20025;-58
2023/06/05 02:39:54;;;;;;;3.72;2.10;;;;;;;13.04;45.21;100192.84;5053660;28;20029;-60
2023/06/05 02:42:20;;;;;;;7.38;2.10;;;;;;;13.03;45.64;100183.94;5054354;28;20040;-60
2023/06/05 02:44:46;;;;;;;4.72;2.03;;;;;;;13.00;45.79;100189.53;5053427;28;20048;-58
2023/06/05 02:47:12;;;;;;;4.28;2.15;;;;;;;13.06;45.88;100201.63;5053715;28;20032;-58
2023/06/05 02:49:38;;;;;;;2.70;2.15;;;;;;;13.03;46.92;100204.56;5054078;28;20028;-64
2023/06/05 02:52:04;;;;;;;3.83;2.40;;;;;;;13.00;47.17;100197.59;5054096;28;20029;-57
2023/06/05 02:54:30;;;;;;;3.90;1.98;;;;;;;13.04;47.29;100204.47;5052870;28;20029;-60
2023/06/05 02:56:56;;;;;;;5.22;2.13;;;;;;;13.10;46.55;100203.06;5053255;28;20119;-59
2023/06/05 02:59:24;;;;;;;4.05;2.30;;;;;;;13.17;46.95;100198.88;5053364;28;20350;-61
2023/06/05 03:01:54;;;;;;;3.42;2.25;;;;;;;13.25;46.67;100208.13;5053556;28;20029;-59
2023/06/05 03:04:21;;;;;;;5.15;2.03;;;;;;;13.26;46.81;100208.00;5053474;28;20364;-54
2023/06/05 03:06:50;;;;;;;3.47;2.03;;;;;;;13.43;46.66;100211.06;5053770;28;20047;-58
2023/06/05 03:09:16;;;;;;;8.63;2.30;;;;;;;13.47;47.15;100212.50;5053535;28;20028;-57
2023/06/05 03:11:43;;;;;;;5.45;2.13;;;;;;;13.48;46.63;100219.59;5053356;28;20112;-59
2023/06/05 03:14:09;;;;;;;3.55;2.13;;;;;;;13.49;47.65;100205.16;5053353;28;20029;-69
2023/06/05 03:16:41;;;;;;;6.28;2.30;;;;;;;13.53;47.61;100212.00;5053154;28;20095;-58
2023/06/05 03:19:13;;;;;;;7.57;2.10;;;;;;;13.58;47.12;100212.44;5053649;28;20045;-60
2023/06/05 03:21:41;;;;;;;5.13;2.00;;;;;;;13.70;47.13;100207.81;5053179;28;20063;-59
2023/06/05 03:24:12;;;;;;;6.10;2.10;;;;;;;13.86;46.91;100220.78;5053124;28;20090;-61
2023/06/05 03:26:39;;;;;;;7.68;2.17;;;;;;;13.94;46.57;100212.03;5053316;28;20029;-61
2023/06/05 03:29:05;;;;;;;3.45;2.00;;;;;;;14.02;45.99;100203.28;5053167;28;20075;-57
2023/06/05 03:31:31;;;;;;;3.35;2.08;;;;;;;13.94;45.28;100177.03;5052818;28;20448;-57
2023/06/05 03:33:58;;;;;;;8.13;2.00;;;;;;;13.84;44.60;100138.47;5053004;28;20043;-57
2023/06/05 03:36:23;;;;;;;4.22;2.10;;;;;;;14.14;44.67;100190.56;5052230;28;20039;-60
2023/06/05 03:38:49;;;;;;;4.32;2.42;;;;;;;14.31;44.50;100194.41;5052655;28;20449;-59
2023/06/05 03:41:15;;;;;;;3.58;2.20;;;;;;;14.31;44.17;100194.41;5052523;28;20017;-57
2023/06/05 03:43:40;;;;;;;4.72;2.17;;;;;;;14.28;44.38;100200.06;5032661;28;20385;-67
2023/06/05 03:46:07;;;;;;;4.38;2.13;;;;;;;14.11;44.91;100170.13;5039609;28;20067;-59
2023/06/05 03:48:32;;;;;;;2.88;2.00;;;;;;;14.33;45.30;100197.81;5052822;28;20029;-60
2023/06/05 03:51:00;;;;;;;5.13;2.30;;;;;;;14.36;46.52;100197.53;5052498;28;20032;-57
2023/06/05 03:53:29;;;;;;;4.40;2.20;;;;;;;14.30;47.30;100192.72;5051626;28;20033;-55
2023/06/05 03:55:56;;;;;;;5.20;2.25;;;;;;;13.96;48.30;100164.28;5051620;28;20041;-59
2023/06/05 03:58:23;;;;;;;4.20;2.13;;;;;;;13.99;48.56;100192.78;5051627;28;20053;-61
2023/06/05 04:00:48;;;;;;;4.22;2.30;;;;;;;13.88;49.91;100182.97;5051528;28;20036;-59
2023/06/05 04:03:15;;;;;;;5.45;2.50;;;;;;;13.78;51.17;100188.31;5050686;28;20033;-59
2023/06/05 04:05:41;;;;;;;2.70;2.20;;;;;;;13.67;52.69;100183.03;5046555;28;20098;-60
2023/06/05 04:08:09;;;;;;;4.63;2.30;;;;;;;13.70;52.62;100190.81;5052346;28;20033;-60
2023/06/05 04:10:35;;;;;;;4.15;2.10;;;;;;;13.69;53.19;100183.72;5051587;28;20021;-62
2023/06/05 04:13:01;;;;;;;4.57;2.60;;;;;;;13.78;51.72;100181.09;5046467;28;20394;-60
2023/06/05 04:15:28;;;;;;;4.72;2.72;;;;;;;13.83;52.48;100179.81;5052074;28;20032;-59
2023/06/05 04:17:55;;;;;;;5.05;2.83;;;;;;;13.61;51.06;100130.59;5051489;28;20077;-61
2023/06/05 04:20:20;;;;;;;5.82;2.83;;;;;;;13.99;50.46;100182.03;5046130;28;20037;-57
2023/06/05 04:22:46;;;;;;;5.22;3.00;;;;;;;14.13;50.64;100187.00;5051522;28;20356;-55
2023/06/05 04:25:12;;;;;;;3.50;2.50;;;;;;;14.16;51.05;100170.56;5052253;28;20033;-57
2023/06/05 04:27:38;;;;;;;4.72;2.67;;;;;;;14.46;50.91;100193.00;5052041;28;20063;-59
2023/06/05 04:30:05;;;;;;;5.43;2.50;;;;;;;14.55;50.13;100175.13;5051124;28;20440;-59
2023/06/05 04:32:34;;;;;;;2.95;2.10;;;;;;;15.06;49.88;100183.94;5051671;28;20024;-60
2023/06/05 04:35:00;;;;;;;6.78;2.40;;;;;;;15.64;48.34;100192.03;5031223;28;20048;-58
2023/06/05 04:37:26;;;;;;;5.45;2.65;;;;;;;16.14;46.88;100209.72;5034413;28;20056;-59
2023/06/05 04:39:52;;;;;;;8.10;3.30;;;;;;;16.52;46.23;100195.28;5051117;28;20094;-59
2023/06/05 04:42:17;;;;;;;4.20;2.95;;;;;;;16.83;45.61;100193.03;5051163;28;20029;-61
2023/06/05 04:44:43;;;;;;;4.13;2.42;;;;;;;17.04;45.22;100197.28;5051578;28;20043;-64
2023/06/05 04:47:09;;;;;;;3.05;2.50;;;;;;;16.99;44.90;100186.06;5049435;28;20107;-59
2023/06/05 04:49:35;;;;;;;5.78;2.60;;;;;;;16.53;45.88;100154.59;5051305;28;20396;-62
2023/06/05 04:52:00;;;;;;;3.88;2.42;;;;;;;16.48;46.50;100178.50;5046008;28;20021;-55
2023/06/05 04:54:26;;;;;;;3.05;2.40;;;;;;;16.24;47.44;100189.91;5033557;28;20037;-59
2023/06/05 04:56:52;;;;;;;4.60;2.67;;;;;;;16.03;48.64;100186.47;5051493;28;20028;-59
2023/06/05 04:59:18;;;;;;;3.75;2.80;;;;;;;15.94;49.11;100187.38;5051145;28;20112;-59
2023/06/05 05:01:44;;;;;;;5.97;2.67;;;;;;;15.78;49.96;100191.53;5051454;28;20096;-60
2023/06/05 05:04:11;;;;;;;5.30;2.45;;;;;;;15.55;50.22;100191.06;5051561;28;20127;-57
2023/06/05 05:06:38;;;;;;;4.68;2.70;;;;;;;15.34;51.77;100192.13;5051449;28;20040;-60
2023/06/05 05:09:04;;;;;;;4.13;2.38;;;;;;;15.23;52.18;100197.69;5051829;28;20096;-59
2023/06/05 05:11:30;;;;;;;4.13;3.15;;;;;;;14.96;53.42;100161.56;5051657;28;20364;-59
2023/06/05 05:13:55;;;;;;;7.03;3.10;;;;;;;15.16;53.12;100193.84;5051056;28;20025;-62
2023/06/05 05:16:22;;;;;;;6.55;2.70;;;;;;;15.24;54.00;100185.91;5054025;28;20421;-60
2023/06/05 05:18:47;;;;;;;5.63;2.80;;;;;;;15.48;52.59;100192.66;5049597;28;20397;-60
2023/06/05 05:21:13;;;;;;;5.90;3.10;;;;;;;15.76;51.06;100190.00;5055376;28;20029;-62
2023/06/05 05:23:38;;;;;;;4.05;2.92;;;;;;;15.98;51.23;100196.88;5054621;28;20017;-61
2023/06/05 05:26:04;;;;;;;4.45;2.80;;;;;;;15.90;50.10;100159.81;5054524;28;20025;-62
2023/06/05 05:28:30;;;;;;;3.83;2.70;;;;;;;16.15;50.26;100199.78;5054910;28;20032;-61
2023/06/05 05:30:58;;;;;;;6.80;2.85;;;;;;;16.23;49.95;100190.91;5054500;28;20386;-61
2023/06/05 05:33:24;;;;;;;4.38;2.25;;;;;;;16.58;48.66;100194.66;5054569;28;20033;-62
2023/06/05 05:35:50;;;;;;;5.68;2.80;;;;;;;17.05;47.40;100196.28;5054723;28;20474;-61
2023/06/05 05:38:16;;;;;;;6.05;2.63;;;;;;;17.49;45.98;100203.50;5054405;28;20028;-60
2023/06/05 05:40:41;;;;;;;8.02;2.78;;;;;;;17.54;45.88;100171.38;5036346;28;20048;-62
2023/06/05 05:43:07;;;;;;;7.45;2.58;;;;;;;17.93;45.18;100200.69;5054152;28;20361;-61
2023/06/05 05:45:33;;;;;;;8.18;2.78;;;;;;;17.93;44.91;100198.00;5053905;28;20029;-59
2023/06/05 05:47:58;;;;;;;7.25;2.60;;;;;;;17.81;44.81;100211.97;5053952;28;20029;-59
2023/06/05 05:50:24;;;;;;;4.82;2.28;;;;;;;17.43;45.73;100204.16;5054200;28;20124;-59
2023/06/05 05:52:51;;;;;;;3.10;2.47;;;;;;;16.98;46.95;100205.97;5054352;28;20429;-61
2023/06/05 05:55:17;;;;;;;5.95;2.58;;;;;;;16.49;48.51;100204.53;5054895;28;20129;-68
2023/06/05 05:57:42;;;;;;;9.02;3.08;;;;;;;16.13;49.61;100216.13;5054295;28;20037;-63
2023/06/05 06:00:12;;;;;;;4.78;2.20;;;;;;;15.87;51.47;100215.94;5052980;28;20104;-63
2023/06/05 06:02:39;;;;;;;3.78;2.67;;;;;;;15.60;52.87;100206.81;5055004;28;20123;-58
2023/06/05 06:05:05;;;;;;;6.05;2.80;;;;;;;15.53;53.66;100203.84;5053562;28;20087;-59
2023/06/05 06:07:31;;;;;;;3.83;2.60;;;;;;;15.55;53.40;100212.66;5053722;28;20475;-59
2023/06/05 06:09:58;;;;;;;5.40;2.40;;;;;;;15.59;53.04;100211.34;5054172;28;20112;-57
2023/06/05 06:12:24;;;;;;;4.63;2.50;;;;;;;15.59;53.06;100210.53;5054730;28;20124;-61
2023/06/05 06:14:50;;;;;;;7.30;2.45;;;;;;;15.57;52.35;100209.81;5054359;28;20171;-61
2023/06/05 06:17:15;;;;;;;6.25;2.72;;;;;;;15.48;53.01;100198.06;5054295;28;20123;-59
2023/06/05 06:19:42;;;;;;;6.20;2.47;;;;;;;15.41;53.61;100199.63;5054107;28;20167;-61
2023/06/05 06:22:11;;;;;;;5.53;2.30;;;;;;;15.52;52.69;100204.00;5054723;28;20037;-59
2023/06/05 06:24:41;;;;;;;8.35;2.67;;;;;;;15.72;53.52;100191.28;5053648;28;20037;-61
2023/06/05 06:27:10;;;;;;;7.55;2.95;;;;;;;16.16;51.95;100213.16;5053049;28;20029;-58
2023/06/05 06:29:46;;;;;;;6.88;2.60;;;;;;;16.90;50.19;100212.19;5054198;28;20029;-60
2023/06/05 06:32:11;;;;;;;6.78;2.65;;;;;;;17.73;46.41;100204.66;5036816;28;20048;-61
2023/06/05 06:34:37;;;;;;;7.57;2.20;;;;;;;18.28;45.93;100187.13;5036658;28;20437;-60
2023/06/05 06:37:03;;;;;;;5.60;2.45;;;;;;;20.23;41.77;100210.84;5036115;28;20449;-65
2023/06/05 06:39:28;;;;;;;5.75;2.13;;;;;;;21.32;38.52;100178.25;5053604;28;20025;-62
2023/06/05 06:41:54;;;;;;;3.90;1.98;;;;;;;21.52;38.57;100198.47;5053992;28;20365;-60
2023/06/05 06:44:20;;;;;;;3.83;1.98;;;;;;;21.32;37.93;100161.91;5053890;28;20052;-68
2023/06/05 06:46:45;;;;;;;5.65;2.00;;;;;;;21.82;37.54;100177.72;5053604;28;20071;-59
2023/06/05 06:49:11;;;;;;;4.97;2.08;;;;;;;22.55;37.00;100196.03;5053755;28;20360;-61
2023/06/05 06:51:36;;;;;;;4.65;2.00;;;;;;;23.46;34.76;100186.34;5036282;28;20033;-61
2023/06/05 06:54:02;;;;;;;4.22;2.30;;;;;;;25.44;31.18;100185.59;5035663;28;20448;-58
2023/06/05 06:56:27;;;;;;;4.25;1.95;;;;;;;28.72;26.68;100177.66;5053437;28;20029;-61
2023/06/05 06:58:54;;;;;;;6.43;2.13;;;;;;;32.03;23.09;100185.06;5053028;28;20032;-59
2023/06/05 07:01:20;;;;;;;3.85;2.10;;;;;;;32.74;21.13;100175.03;5052049;28;20123;-60
2023/06/05 07:03:46;;;;;;;4.30;1.70;;;;;;;31.64;22.06;100180.41;5053119;28;20261;-65
2023/06/05 07:06:12;;;;;;;3.85;1.75;;;;;;;30.06;23.56;100174.44;5026332;28;20053;-69
2023/06/05 07:08:38;;;;;;;5.28;1.80;;;;;;;31.47;22.61;100164.72;5047989;28;20083;-69
2023/06/05 07:11:03;;;;;;;3.10;1.55;;;;;;;34.33;18.67;100140.94;5052536;28;20455;-69
2023/06/05 07:13:29;;;;;;;5.07;1.83;;;;;;;37.29;16.42;100168.47;5034169;28;20029;-68
2023/06/05 07:15:55;;;;;;;3.60;1.50;;;;;;;39.52;14.36;100167.19;5034049;28;20025;-67
2023/06/05 07:18:21;;;;;;;5.43;1.30;;;;;;;41.07;12.57;100163.63;5052780;28;20072;-67
2023/06/05 07:20:47;;;;;;;4.38;1.70;;;;;;;42.18;11.75;100155.44;5034948;28;20052;-69
2023/06/05 07:23:14;;;;;;;3.90;1.80;;;;;;;43.18;11.35;100165.91;5035352;28;20045;-67
2023/06/05 07:25:40;;;;;;;3.55;1.77;;;;;;;44.34;10.09;100170.56;5052651;28;20029;-69
2023/06/05 07:28:12;;;;;;;3.92;2.03;;;;;;;45.11;9.33;100171.34;5052450;28;20032;-67
2023/06/05 07:30:43;;;;;;;2.28;1.70;;;;;;;44.88;9.70;100168.91;5052738;28;20044;-66
2023/06/05 07:33:09;;;;;;;1.90;1.80;;;;;;;43.03;10.42;100158.81;5032619;28;20074;-64
2023/06/05 07:35:35;;;;;;;2.72;1.83;;;;;;;41.97;10.88;100163.66;5052198;28;20067;-63
2023/06/05 07:38:00;;;;;;;2.47;1.55;;;;;;;41.96;11.18;100159.16;5051198;28;20066;-63
2023/06/05 07:40:26;;;;;;;6.43;2.50;;;;;;;42.06;11.06;100163.66;5051864;28;20448;-64
2023/06/05 07:42:51;;;;;;;2.67;2.33;;;;;;;41.88;11.49;100156.03;5035150;28;20112;-67
2023/06/05 07:45:17;;;;;;;5.05;2.30;;;;;;;39.95;12.29;100163.22;5034959;28;20033;-66
2023/06/05 07:47:42;;;;;;;4.53;2.47;;;;;;;38.17;13.51;100164.66;5017336;28;20068;-66
2023/06/05 07:50:08;;;;;;;5.20;1.85;;;;;;;36.42;15.25;100162.50;5032644;28;20352;-66
2023/06/05 07:52:36;;;;;;;4.72;2.03;;;;;;;35.69;15.50;100172.31;5034848;28;20063;-65
2023/06/05 07:55:02;;;;;;;4.07;2.10;;;;;;;36.62;15.60;100160.69;5034757;28;20476;-65
2023/06/05 07:57:29;;;;;;;2.63;1.90;;;;;;;37.87;13.82;100154.69;5052653;28;20065;-66
2023/06/05 07:59:55;;;;;;;3.35;1.90;;;;;;;36.95;14.60;100155.41;5017157;28;20471;-67
2023/06/05 08:02:21;;;;;;;5.07;1.85;;;;;;;35.64;15.77;100140.59;5052235;28;20039;-67
2023/06/05 08:04:47;;;;;;;2.67;1.70;;;;;;;34.52;16.55;100146.00;5050893;28;20045;-65
2023/06/05 08:07:13;;;;;;;3.58;1.90;;;;;;;32.52;18.43;100152.94;5052032;28;20219;-67
2023/06/05 08:09:39;;;;;;;5.03;2.22;;;;;;;30.56;20.40;100157.38;5051305;28;20029;-66
2023/06/05 08:12:05;;;;;;;6.00;1.85;;;;;;;28.89;22.07;100155.78;5051514;28;20039;-65
2023/06/05 08:14:33;;;;;;;2.05;1.60;;;;;;;27.55;23.64;100163.06;5051386;28;20127;-65
2023/06/05 08:16:58;;;;;;;4.90;1.40;;;;;;;26.42;25.38;100139.91;5034759;28;20028;-65
2023/06/05 08:19:24;;;;;;;6.90;1.50;;;;;;;25.69;26.82;100138.34;5051609;28;20102;-66
2023/06/05 08:21:59;;;;;;;4.03;1.35;;;;;;;25.16;27.61;100159.31;5051477;28;20448;-69
2023/06/05 08:24:26;;;;;;;;;;;;;;;25.47;26.01;100152.31;5067196;28;20056;-67
2023/06/05 08:26:52;;;;;;;3.53;1.30;;;;;;;24.20;28.63;100140.22;5052148;28;19994;-66
2023/06/05 08:29:18;;;;;;;4.15;1.60;;;;;;;24.04;28.66;100147.75;5052043;28;20068;-66
2023/06/05 08:31:43;;;;;;;6.00;1.67;;;;;;;23.74;29.18;100138.97;5051776;28;20036;-67
2023/06/05 08:34:09;;;;;;;1.60;1.20;;;;;;;23.65;29.28;100128.22;5051844;28;20120;-68
2023/06/05 08:36:35;;;;;;;4.68;1.63;;;;;;;23.69;28.63;100146.94;5034448;28;20029;-67
2023/06/05 08:39:01;;;;;;;6.53;1.65;;;;;;;23.85;28.50;100137.56;5051813;28;20037;-62
2023/06/05 08:41:27;;;;;;;2.97;1.55;;;;;;;23.90;28.77;100105.81;5051084;28;20471;-65
2023/06/05 08:43:53;;;;;;;3.30;1.52;;;;;;;23.97;28.25;100096.78;5051918;28;20036;-65
2023/06/05 08:46:18;;;;;;;5.18;1.50;;;;;;;24.05;27.87;100127.56;5051661;28;20029;-69
2023/06/05 08:48:48;;;;;;;3.53;1.40;;;;;;;23.77;27.98;100130.38;5051929;28;20128;-66
2023/06/05 08:51:16;;;;;;;2.75;1.50;;;;;;;23.64;28.46;100121.06;5038080;28;20101;-65
2023/06/05 08:53:46;;;;;;;4.97;1.88;;;;;;;23.55;29.23;100122.28;5055646;28;20052;-69
2023/06/05 08:56:13;;;;;;;4.18;1.50;;;;;;;23.54;29.66;100114.28;5055502;28;20033;-67
2023/06/05 08:58:42;;;;;;;3.85;1.50;;;;;;;23.53;29.13;100124.38;5038050;28;20020;-68
2023/06/05 09:01:09;;;;;;;3.20;1.63;;;;;;;23.28;28.91;100110.38;5055596;28;20068;-68
2023/06/05 09:03:34;;;;;;;4.10;1.30;;;;;;;22.75;29.54;100107.00;5055345;28;20036;-67
2023/06/05 09:06:02;;;;;;;5.25;1.55;;;;;;;22.43;30.42;100109.22;5036712;28;20353;-67
2023/06/05 09:08:32;;;;;;;8.35;2.15;;;;;;;22.26;31.01;100119.53;5037196;28;20038;-67
2023/06/05 09:11:30;;;;;;;6.00;2.00;;;;;;;22.28;30.79;100106.53;5037224;28;20444;-67
2023/06/05 09:14:00;;;;;;;4.47;1.40;;;;;;;22.17;30.97;100066.16;5036745;28;20036;-70
2023/06/05 09:16:42;;;;;;;5.20;1.60;;;;;;;22.80;29.70;100110.00;5055009;28;20029;-70
2023/06/05 09:19:09;;;;;;;5.43;1.50;;;;;;;22.82;29.35;100093.44;5053512;28;20045;-67
2023/06/05 09:21:35;;;;;;;2.42;1.65;;;;;;;22.82;29.49;100093.44;5052682;28;20044;-69
2023/06/05 09:24:14;;;;;;;6.60;2.58;;;;;;;22.95;29.55;100095.41;5035747;28;20141;-67
2023/06/05 09:26:46;;;;;;;4.80;1.70;;;;;;;22.87;29.31;100096.41;5034901;28;20033;-66
2023/06/05 09:29:11;;;;;;;2.72;1.58;;;;;;;22.64;29.56;100078.38;5052462;28;20070;-66
2023/06/05 09:31:43;;;;;;;4.07;1.50;;;;;;;22.61;29.71;100088.81;5035523;28;20025;-67
2023/06/05 09:34:09;;;;;;;2.33;1.48;;;;;;;22.34;30.21;100083.09;5053759;28;20028;-65
2023/06/05 09:36:45;;;;;;;9.07;2.67;;;;;;;22.25;34.52;100106.09;5052911;28;20029;-65
2023/06/05 09:39:17;;;;;;;;;;;;;;;22.42;31.37;100114.88;5054733;28;20039;-65
2023/06/05 09:41:44;;;;;;;3.95;2.03;;;;;;;21.19;36.48;100118.97;5054546;28;19915;-64
2023/06/05 09:44:10;;;;;;;6.53;1.67;;;;;;;20.34;39.45;100135.34;5054320;28;20040;-66
2023/06/05 09:46:51;;;;;;;7.75;1.60;;;;;;;19.82;40.67;100162.09;5020833;28;20032;-65
2023/06/05 09:49:17;;;;;;;5.80;1.50;;;;;;;18.87;44.27;100166.34;5036999;28;20060;-64
2023/06/05 09:51:43;;;;;;;4.20;1.67;;;;;;;18.13;48.13;100151.69;5054552;28;20448;-64
2023/06/05 09:54:12;;;;;;;7.53;2.00;;;;;;;17.65;49.49;100154.00;5054209;28;20033;-67
2023/06/05 09:56:40;;;;;;;6.25;2.00;;;;;;;17.20;50.71;100142.44;5052699;28;20066;-65
2023/06/05 09:59:07;;;;;;;2.28;1.58;;;;;;;17.10;52.04;100144.41;5053206;28;20043;-65
2023/06/05 10:01:36;;;;;;;4.93;1.60;;;;;;;17.30;53.01;100137.75;5053034;28;20432;-64
2023/06/05 10:04:09;;;;;;;6.07;1.80;;;;;;;17.44;52.11;100125.50;5036190;28;20090;-68
2023/06/05 10:06:36;;;;;;;8.90;2.20;;;;;;;17.55;50.88;100127.06;5044767;28;20021;-65
2023/06/05 10:09:03;;;;;;;3.47;2.20;;;;;;;17.63;50.52;100134.38;5053870;28;20448;-67
2023/06/05 10:11:29;;;;;;;7.35;2.50;;;;;;;17.47;49.90;100094.56;5032421;28;20113;-68
2023/06/05 10:13:59;;;;;;;5.43;2.92;;;;;;;17.90;49.82;100092.69;5054551;28;20021;-62
2023/06/05 10:16:28;;;;;;;6.50;3.13;;;;;;;18.86;48.48;100123.97;5053516;28;20033;-63
2023/06/05 10:18:56;;;;;;;5.43;3.22;;;;;;;19.39;47.25;100118.13;5053996;28;20155;-64
2023/06/05 10:21:23;;;;;;;6.43;3.20;;;;;;;19.80;46.34;100109.81;5036837;28;20041;-64
2023/06/05 10:23:52;;;;;;;9.80;3.60;;;;;;;20.23;44.88;100109.41;5053376;28;20891;-63
2023/06/05 10:26:36;;;;;;;4.15;2.50;;;;;;;20.54;43.61;100113.13;5052170;28;20216;-63
2023/06/05 10:29:07;;;;;;;3.72;2.13;;;;;;;20.42;43.85;100102.66;5050015;28;20039;-67
2023/06/05 10:31:45;;;;;;;6.38;2.13;;;;;;;20.25;43.45;100098.34;5018055;28;20021;-64
2023/06/05 10:34:22;;;;;;;3.35;1.83;;;;;;;20.15;44.13;100104.88;5052235;28;20036;-64
2023/06/05 10:37:09;;;;;;;3.95;1.80;;;;;;;20.16;43.48;100098.41;5045567;28;20033;-64
2023/06/05 10:39:36;;;;;;;4.95;2.00;;;;;;;19.98;44.56;100095.13;5045235;28;20029;-64
2023/06/05 10:42:02;;;;;;;6.65;2.30;;;;;;;19.96;44.31;100086.31;5053157;28;20040;-63
2023/06/05 10:44:42;;;;;;;2.42;1.75;;;;;;;19.91;44.75;100089.59;5053363;28;20037;-64
2023/06/05 10:47:32;;;;;;;2.97;1.80;;;;;;;19.91;43.32;100089.59;5045223;28;20457;-65
2023/06/05 10:50:17;;;;;;;4.55;1.90;;;;;;;20.00;43.26;100093.94;5032042;28;20048;-65
2023/06/05 10:52:43;;;;;;;4.78;1.80;;;;;;;19.81;42.58;100081.63;5038491;28;20050;-68
2023/06/05 10:55:15;;;;;;;4.18;1.90;;;;;;;19.78;42.42;100073.84;5052573;28;20482;-63
2023/06/05 10:58:02;;;;;;;3.20;1.83;;;;;;;19.93;42.21;100079.38;5052008;28;20025;-62
2023/06/05 11:00:29;;;;;;;4.75;1.83;;;;;;;19.76;41.34;100081.28;5051789;28;20025;-62
2023/06/05 11:02:56;;;;;;;5.47;1.65;;;;;;;19.79;42.01;100080.97;5050026;28;20025;-64
2023/06/05 11:05:22;;;;;;;5.28;1.70;;;;;;;19.93;41.74;100079.38;5052147;28;20040;-63
2023/06/05 11:07:47;;;;;;;3.42;1.70;;;;;;;19.96;41.51;100076.31;5052082;28;20033;-65
2023/06/05 11:10:20;;;;;;;4.68;2.33;;;;;;;19.88;43.78;100095.31;5049481;28;20041;-61
2023/06/05 11:12:45;;;;;;;3.47;2.10;;;;;;;19.48;44.60;100106.19;5049006;28;20067;-64
2023/06/05 11:15:14;;;;;;;4.78;1.90;;;;;;;19.08;45.08;100117.88;5049707;28;20056;-63
2023/06/05 11:17:46;;;;;;;2.75;1.60;;;;;;;18.40;46.97;100138.88;5049215;28;20054;-63
2023/06/05 11:20:23;;;;;;;3.95;1.50;;;;;;;17.90;48.89;100130.59;5052399;28;20045;-63
2023/06/05 11:22:58;;;;;;;1.75;1.50;;;;;;;17.38;51.42;100120.72;5052128;28;20044;-63
2023/06/05 11:25:29;;;;;;;3.60;1.50;;;;;;;17.16;52.89;100122.13;5052249;28;20037;-63
2023/06/05 11:28:01;;;;;;;4.50;1.73;;;;;;;16.97;53.01;100104.22;5050551;28;20049;-64
2023/06/05 11:30:33;;;;;;;3.90;2.03;;;;;;;17.04;54.32;100111.56;5049709;28;20040;-62